Time;durP1;ratioP1;P1;durP2;ratioP2;P2;SDS_P1;SDS_P2;PMS_P1;PMS_P2;Temp;Humidity;BMP_temperature;BMP_pressure;BME280_temperature;BME280_humidity;BME280_pressure;Samples;Min_cycle;Max_cycle;Signal;HPM_P1;HPM_P2
2022/08/31 00:05:58;;;;;;;8.88;2.90;;;21.50;84.30;;;;;;5054214;28;20071;-44
2022/08/31 00:08:24;;;;;;;4.10;2.95;;;21.50;84.50;;;;;;5054113;28;20043;-45
2022/08/31 00:10:50;;;;;;;4.60;2.97;;;21.50;84.60;;;;;;5054399;28;20079;-47
2022/08/31 00:13:16;;;;;;;6.18;2.92;;;21.50;84.70;;;;;;5053872;28;20028;-43
2022/08/31 00:15:42;;;;;;;4.20;2.90;;;21.60;84.70;;;;;;5053820;28;20451;-47
2022/08/31 00:18:08;;;;;;;8.82;3.20;;;21.50;84.80;;;;;;5053827;28;20028;-41
2022/08/31 00:20:34;;;;;;;6.13;3.53;;;21.50;84.80;;;;;;5053874;28;20021;-44
2022/08/31 00:23:02;;;;;;;7.03;3.05;;;21.60;84.90;;;;;;5053604;28;20031;-44
2022/08/31 00:25:28;;;;;;;4.47;3.10;;;21.50;84.90;;;;;;5053661;28;20555;-42
2022/08/31 00:27:54;;;;;;;7.47;3.05;;;21.50;85.00;;;;;;5053766;28;20082;-43
2022/08/31 00:30:20;;;;;;;3.58;2.58;;;21.50;85.10;;;;;;5053501;28;20041;-43
2022/08/31 00:32:46;;;;;;;2.97;2.70;;;21.50;85.20;;;;;;5055231;28;20083;-45
2022/08/31 00:35:11;;;;;;;4.10;2.85;;;21.50;85.30;;;;;;5055638;28;20037;-44
2022/08/31 00:37:37;;;;;;;6.60;3.03;;;21.50;85.30;;;;;;5055041;28;20017;-44
2022/08/31 00:40:03;;;;;;;6.82;2.92;;;21.50;85.50;;;;;;5053405;28;20093;-43
2022/08/31 00:42:29;;;;;;;5.88;2.65;;;21.50;85.50;;;;;;5053075;28;20043;-42
2022/08/31 00:44:54;;;;;;;8.88;3.22;;;21.50;85.60;;;;;;5053301;28;20506;-44
2022/08/31 00:47:20;;;;;;;4.93;3.17;;;21.40;85.50;;;;;;5053335;28;20033;-44
2022/08/31 00:49:50;;;;;;;7.53;2.83;;;21.50;85.80;;;;;;5053199;28;20126;-44
2022/08/31 00:52:26;;;;;;;4.70;3.22;;;21.40;85.80;;;;;;5053099;28;20025;-45
2022/08/31 00:54:57;;;;;;;5.25;2.95;;;21.40;85.90;;;;;;5052813;28;20103;-46
2022/08/31 00:57:28;;;;;;;6.72;2.85;;;21.40;86.00;;;;;;5052518;28;20029;-45
2022/08/31 00:59:54;;;;;;;14.68;3.45;;;21.40;86.10;;;;;;5053079;28;20047;-44
2022/08/31 01:02:20;;;;;;;10.35;3.55;;;21.30;86.20;;;;;;5052912;28;20021;-41
2022/08/31 01:04:45;;;;;;;2.75;2.55;;;21.30;86.20;;;;;;5053524;28;20060;-45
2022/08/31 01:07:11;;;;;;;7.50;3.15;;;21.30;86.40;;;;;;5053024;28;20036;-45
2022/08/31 01:09:39;;;;;;;3.83;3.00;;;21.30;86.30;;;;;;5052596;28;20029;-48
2022/08/31 01:12:06;;;;;;;5.30;3.10;;;21.30;86.50;;;;;;5034754;28;20032;-43
2022/08/31 01:14:32;;;;;;;5.45;3.17;;;21.30;86.50;;;;;;5052945;28;20404;-43
2022/08/31 01:16:57;;;;;;;5.50;2.90;;;21.20;86.60;;;;;;5053023;28;20029;-44
2022/08/31 01:19:38;;;;;;;3.85;2.97;;;21.20;86.60;;;;;;5052591;28;20372;-44
2022/08/31 01:22:42;;;;;;;4.43;3.13;;;21.20;86.60;;;;;;5052262;28;20048;-48
2022/08/31 01:25:08;;;;;;;3.35;2.47;;;21.20;86.90;;;;;;5022074;28;20033;-48
2022/08/31 01:27:35;;;;;;;9.32;3.15;;;21.20;86.90;;;;;;5052640;28;20060;-46
2022/08/31 01:30:04;;;;;;;3.53;3.10;;;21.20;87.10;;;;;;5052418;28;20029;-45
2022/08/31 01:32:30;;;;;;;4.22;2.90;;;21.10;87.20;;;;;;5052050;28;20025;-44
2022/08/31 01:34:56;;;;;;;4.78;3.40;;;21.10;88.00;;;;;;5052540;28;20126;-44
2022/08/31 01:37:21;;;;;;;3.05;2.72;;;21.10;87.50;;;;;;5052349;28;20025;-46
2022/08/31 01:39:49;;;;;;;8.55;3.05;;;21.00;87.70;;;;;;5052307;28;20060;-44
2022/08/31 01:42:18;;;;;;;8.07;3.00;;;21.00;87.80;;;;;;5051974;28;20550;-44
2022/08/31 01:44:44;;;;;;;3.70;3.17;;;21.00;88.10;;;;;;5052317;28;20434;-44
2022/08/31 01:47:09;;;;;;;4.53;2.70;;;20.90;88.30;;;;;;5052202;28;20033;-45
2022/08/31 01:49:36;;;;;;;5.22;3.10;;;21.00;88.10;;;;;;5051890;28;20131;-47
2022/08/31 01:52:02;;;;;;;5.65;2.97;;;21.10;88.00;;;;;;5051686;28;20392;-44
2022/08/31 01:54:28;;;;;;;10.45;3.35;;;21.10;87.80;;;;;;5051980;28;20174;-46
2022/08/31 01:56:54;;;;;;;3.05;2.75;;;21.10;87.80;;;;;;5051576;28;20100;-45
2022/08/31 01:59:21;;;;;;;4.57;3.15;;;21.10;87.90;;;;;;5051800;28;20024;-45
2022/08/31 02:01:50;;;;;;;3.65;3.35;;;21.00;88.10;;;;;;5051875;28;20026;-45
2022/08/31 02:04:18;;;;;;;6.05;2.75;;;21.00;88.30;;;;;;5051849;28;20060;-48
2022/08/31 02:06:47;;;;;;;8.02;3.20;;;20.90;88.60;;;;;;5051807;28;20104;-43
2022/08/31 02:09:13;;;;;;;6.80;3.13;;;20.90;88.90;;;;;;5051771;28;20496;-43
2022/08/31 02:11:39;;;;;;;9.20;3.55;;;20.90;89.10;;;;;;5051706;28;20178;-49
2022/08/31 02:14:05;;;;;;;6.57;2.80;;;20.80;89.40;;;;;;5051535;28;20032;-47
2022/08/31 02:16:31;;;;;;;6.22;3.05;;;20.80;89.60;;;;;;5051769;28;20029;-49
2022/08/31 02:18:56;;;;;;;7.22;2.83;;;20.70;89.80;;;;;;5051637;28;20031;-47
2022/08/31 02:21:22;;;;;;;9.55;3.50;;;20.80;89.80;;;;;;5051809;28;20024;-40
2022/08/31 02:23:47;;;;;;;3.60;2.88;;;20.70;90.00;;;;;;5051478;28;20032;-44
2022/08/31 02:26:13;;;;;;;3.47;2.97;;;20.70;90.10;;;;;;5051623;28;20025;-44
2022/08/31 02:28:39;;;;;;;5.40;2.55;;;20.70;90.20;;;;;;5033523;28;20025;-42
2022/08/31 02:31:05;;;;;;;7.85;3.00;;;20.70;90.30;;;;;;5051470;28;20036;-44
2022/08/31 02:33:30;;;;;;;4.15;2.72;;;20.70;90.30;;;;;;5051206;28;20033;-44
2022/08/31 02:35:56;;;;;;;3.47;3.00;;;20.70;90.30;;;;;;5051462;28;20029;-47
2022/08/31 02:38:22;;;;;;;5.60;3.17;;;20.60;90.40;;;;;;5051237;28;20081;-44
2022/08/31 02:40:48;;;;;;;4.88;3.08;;;20.60;90.50;;;;;;5051380;28;20032;-45
2022/08/31 02:43:14;;;;;;;3.20;2.78;;;20.50;90.60;;;;;;5051148;28;20021;-47
2022/08/31 02:45:40;;;;;;;7.38;2.75;;;20.60;90.60;;;;;;5051395;28;20025;-43
2022/08/31 02:48:07;;;;;;;8.20;3.42;;;20.60;90.60;;;;;;5051129;28;20404;-43
2022/08/31 02:50:37;;;;;;;4.45;3.30;;;20.50;90.70;;;;;;5051375;28;20031;-42
2022/08/31 02:53:02;;;;;;;4.57;2.65;;;20.60;90.70;;;;;;5051366;28;20191;-44
2022/08/31 02:55:28;;;;;;;10.23;3.45;;;20.50;90.90;;;;;;5051197;28;20100;-43
2022/08/31 02:57:53;;;;;;;4.03;3.08;;;20.60;90.90;;;;;;5033115;28;20104;-42
2022/08/31 03:00:20;;;;;;;3.67;3.33;;;20.60;90.90;;;;;;5051251;28;20017;-44
2022/08/31 03:02:47;;;;;;;8.55;3.42;;;20.50;90.90;;;;;;5050905;28;20083;-45
2022/08/31 03:05:13;;;;;;;5.43;3.72;;;20.50;91.00;;;;;;5051161;28;20029;-43
2022/08/31 03:07:39;;;;;;;5.53;2.90;;;20.50;91.10;;;;;;5051156;28;20027;-44
2022/08/31 03:10:07;;;;;;;3.50;3.00;;;20.50;91.10;;;;;;5051060;28;20021;-43
2022/08/31 03:12:34;;;;;;;5.82;3.63;;;20.50;91.20;;;;;;5050733;28;20021;-45
2022/08/31 03:15:00;;;;;;;3.53;2.88;;;20.50;91.20;;;;;;5051173;28;20025;-42
2022/08/31 03:17:25;;;;;;;8.05;3.30;;;20.50;91.20;;;;;;5053632;28;20098;-44
2022/08/31 03:20:01;;;;;;;3.63;3.17;;;20.40;91.30;;;;;;5054876;28;20554;-44
2022/08/31 03:22:27;;;;;;;4.90;2.80;;;20.40;91.50;;;;;;5054909;28;20021;-44
2022/08/31 03:24:53;;;;;;;3.08;2.78;;;20.30;91.70;;;;;;5054960;28;20025;-44
2022/08/31 03:27:18;;;;;;;4.65;3.10;;;20.40;91.60;;;;;;5055038;28;20025;-41
2022/08/31 03:29:44;;;;;;;11.95;3.13;;;20.40;91.70;;;;;;5054864;28;20388;-45
2022/08/31 03:32:09;;;;;;;10.13;3.10;;;20.40;91.70;;;;;;5054523;28;20040;-48
2022/08/31 03:34:35;;;;;;;3.55;3.00;;;20.40;91.80;;;;;;5054611;28;20057;-46
2022/08/31 03:37:00;;;;;;;8.15;3.20;;;20.30;91.80;;;;;;5054683;28;20099;-45
2022/08/31 03:39:26;;;;;;;5.05;2.72;;;20.40;91.80;;;;;;5054536;28;20488;-45
2022/08/31 03:41:51;;;;;;;7.00;3.10;;;20.30;91.90;;;;;;5054400;28;20028;-41
2022/08/31 03:44:22;;;;;;;4.50;2.92;;;20.30;92.00;;;;;;5054560;28;20021;-44
2022/08/31 03:46:49;;;;;;;3.53;3.13;;;20.40;91.90;;;;;;5054787;28;20075;-44
2022/08/31 03:49:17;;;;;;;5.95;2.70;;;20.30;91.90;;;;;;5082283;22;20049;-46
2022/08/31 03:51:43;;;;;;;8.30;3.53;;;20.30;92.00;;;;;;5074611;28;20017;-44
2022/08/31 03:54:09;;;;;;;10.05;3.30;;;20.30;92.10;;;;;;5073960;28;20016;-45
2022/08/31 03:56:35;;;;;;;7.10;3.10;;;20.30;92.10;;;;;;5074611;28;20031;-44
2022/08/31 03:59:00;;;;;;;6.03;3.30;;;20.30;92.20;;;;;;5073863;28;20021;-43
2022/08/31 04:01:26;;;;;;;5.80;3.20;;;20.30;92.20;;;;;;5056418;28;20028;-44
2022/08/31 04:03:51;;;;;;;3.38;3.10;;;20.30;92.20;;;;;;5073955;28;20029;-42
2022/08/31 04:06:17;;;;;;;5.95;3.35;;;20.30;92.30;;;;;;5074269;28;20028;-45
2022/08/31 04:08:42;;;;;;;5.90;3.65;;;20.30;92.30;;;;;;5074193;28;20051;-43
2022/08/31 04:11:12;;;;;;;7.80;3.50;;;20.30;92.40;;;;;;5056442;28;20048;-43
2022/08/31 04:13:39;;;;;;;7.28;3.22;;;20.30;92.60;;;;;;5073887;28;20051;-43
2022/08/31 04:16:08;;;;;;;4.63;3.92;;;20.20;92.60;;;;;;5056365;28;20025;-43
2022/08/31 04:18:35;;;;;;;7.07;3.20;;;20.30;92.80;;;;;;5073943;28;20025;-41
2022/08/31 04:21:02;;;;;;;3.40;3.05;;;20.20;92.90;;;;;;5074857;28;20464;-44
2022/08/31 04:23:28;;;;;;;4.13;3.25;;;20.30;92.80;;;;;;5073840;28;20036;-43
2022/08/31 04:25:55;;;;;;;5.55;3.33;;;20.20;93.00;;;;;;5073950;28;20017;-43
2022/08/31 04:28:21;;;;;;;7.90;3.78;;;20.20;93.10;;;;;;5072607;28;20017;-48
2022/08/31 04:30:47;;;;;;;6.93;4.15;;;20.20;93.10;;;;;;5055976;28;20067;-47
2022/08/31 04:33:13;;;;;;;6.38;2.97;;;20.20;93.30;;;;;;5073508;28;20032;-44
2022/08/31 04:35:40;;;;;;;10.13;3.67;;;20.10;93.40;;;;;;5073650;28;20024;-42
2022/08/31 04:38:06;;;;;;;7.50;3.80;;;20.20;93.50;;;;;;5073676;28;20115;-44
2022/08/31 04:40:31;;;;;;;7.88;3.67;;;20.30;93.50;;;;;;5073561;28;20048;-44
2022/08/31 04:42:58;;;;;;;6.90;3.47;;;20.20;93.50;;;;;;5073412;28;20578;-46
2022/08/31 04:45:24;;;;;;;3.88;3.15;;;20.30;93.50;;;;;;5073699;28;20024;-48
2022/08/31 04:47:50;;;;;;;4.50;3.00;;;20.20;93.60;;;;;;5055523;28;20020;-49
2022/08/31 04:50:16;;;;;;;5.97;3.20;;;20.30;93.70;;;;;;5073860;28;20025;-44
2022/08/31 04:52:43;;;;;;;5.55;3.25;;;20.20;93.70;;;;;;5074334;28;20025;-44
2022/08/31 04:55:10;;;;;;;5.20;3.30;;;20.20;93.80;;;;;;5073915;28;20024;-44
2022/08/31 04:57:37;;;;;;;5.32;3.30;;;20.20;93.90;;;;;;5073783;28;20339;-44
2022/08/31 05:00:04;;;;;;;3.92;3.53;;;20.10;94.10;;;;;;5055368;28;20024;-44
2022/08/31 05:02:32;;;;;;;5.63;3.40;;;20.10;94.20;;;;;;5073128;28;20028;-44
2022/08/31 05:04:59;;;;;;;3.83;3.30;;;20.10;94.30;;;;;;5073218;28;20052;-44
2022/08/31 05:07:25;;;;;;;5.47;3.65;;;20.10;94.40;;;;;;5073576;28;20377;-44
2022/08/31 05:09:51;;;;;;;4.20;3.75;;;20.10;94.50;;;;;;5073544;28;20103;-45
2022/08/31 05:12:17;;;;;;;6.95;3.83;;;20.10;94.40;;;;;;5073052;28;20460;-48
2022/08/31 05:14:42;;;;;;;5.88;3.30;;;20.20;94.50;;;;;;5073322;28;20024;-45
2022/08/31 05:17:08;;;;;;;5.00;3.45;;;20.20;94.50;;;;;;5073198;28;20024;-46
2022/08/31 05:19:34;;;;;;;11.52;3.85;;;20.20;94.50;;;;;;5073163;28;20069;-46
2022/08/31 05:21:59;;;;;;;5.00;3.88;;;20.20;94.50;;;;;;5074047;28;20037;-48
2022/08/31 05:24:25;;;;;;;7.70;3.95;;;20.20;94.60;;;;;;5072755;28;20408;-47
2022/08/31 05:26:54;;;;;;;13.10;3.60;;;20.20;94.60;;;;;;5072878;28;20029;-44
2022/08/31 05:29:22;;;;;;;4.07;3.08;;;20.10;94.80;;;;;;5072785;28;20031;-44
2022/08/31 05:31:47;;;;;;;11.38;3.88;;;20.10;94.80;;;;;;5072652;28;20029;-45
2022/08/31 05:34:14;;;;;;;7.75;3.50;;;20.10;94.90;;;;;;5072639;28;20381;-46
2022/08/31 05:36:41;;;;;;;7.30;4.50;;;20.10;94.90;;;;;;5072528;28;20028;-46
2022/08/31 05:39:10;;;;;;;11.20;4.85;;;20.20;94.90;;;;;;5072754;28;20032;-44
2022/08/31 05:41:36;;;;;;;7.18;3.90;;;20.10;95.10;;;;;;5055241;28;20150;-43
2022/08/31 05:44:04;;;;;;;6.43;3.90;;;20.10;95.10;;;;;;5072667;28;20447;-45
2022/08/31 05:46:29;;;;;;;4.10;3.63;;;20.10;95.20;;;;;;5072426;28;20117;-43
2022/08/31 05:48:55;;;;;;;7.88;4.35;;;20.10;95.20;;;;;;5072033;28;20082;-47
2022/08/31 05:51:21;;;;;;;5.80;4.00;;;20.20;95.30;;;;;;5072288;28;20029;-47
2022/08/31 05:53:48;;;;;;;5.45;3.97;;;20.20;95.30;;;;;;5053948;28;20081;-43
2022/08/31 05:56:18;;;;;;;6.80;3.80;;;20.20;95.30;;;;;;5072475;28;20416;-47
2022/08/31 05:58:46;;;;;;;4.57;3.85;;;20.20;95.30;;;;;;5071962;28;20099;-44
2022/08/31 06:01:14;;;;;;;9.05;3.90;;;20.30;95.30;;;;;;5071985;28;20032;-48
2022/08/31 06:03:40;;;;;;;6.22;3.47;;;20.30;95.40;;;;;;5071822;28;20610;-48
2022/08/31 06:06:08;;;;;;;7.13;3.85;;;20.30;95.30;;;;;;5071953;28;20501;-47
2022/08/31 06:08:35;;;;;;;6.05;3.80;;;20.30;95.50;;;;;;5071893;28;20104;-48
2022/08/31 06:11:01;;;;;;;4.93;3.78;;;20.30;95.50;;;;;;5071962;28;20024;-45
2022/08/31 06:13:27;;;;;;;7.22;3.72;;;20.20;95.50;;;;;;5071792;28;20110;-43
2022/08/31 06:15:53;;;;;;;8.50;4.00;;;20.20;96.00;;;;;;5071595;28;20032;-46
2022/08/31 06:18:19;;;;;;;9.07;3.28;;;20.20;95.90;;;;;;5071967;28;20104;-47
2022/08/31 06:20:45;;;;;;;4.22;3.83;;;20.20;96.10;;;;;;5071832;28;20023;-45
2022/08/31 06:23:11;;;;;;;5.32;3.53;;;20.20;96.30;;;;;;5072394;28;20440;-49
2022/08/31 06:25:37;;;;;;;5.93;3.40;;;20.20;96.50;;;;;;5071664;28;20032;-49
2022/08/31 06:28:05;;;;;;;4.63;3.97;;;20.10;96.60;;;;;;5071633;28;20096;-44
2022/08/31 06:30:38;;;;;;;7.55;4.50;;;20.10;97.20;;;;;;5071527;28;20020;-45
2022/08/31 06:33:05;;;;;;;8.93;4.43;;;20.00;97.60;;;;;;5071427;28;20459;-44
2022/08/31 06:35:31;;;;;;;4.82;3.47;;;20.00;97.90;;;;;;5071611;28;20020;-40
2022/08/31 06:37:56;;;;;;;6.75;3.97;;;20.00;98.20;;;;;;5071560;28;20029;-47
2022/08/31 06:40:24;;;;;;;8.38;4.32;;;19.90;98.30;;;;;;5071368;28;20063;-43
2022/08/31 06:42:50;;;;;;;8.40;4.30;;;19.80;98.60;;;;;;5071083;28;20491;-48
2022/08/31 06:45:16;;;;;;;7.05;4.70;;;19.80;99.00;;;;;;5071489;28;20111;-46
2022/08/31 06:47:41;;;;;;;17.95;5.10;;;19.80;99.30;;;;;;5071573;28;20020;-42
2022/08/31 06:50:07;;;;;;;7.85;4.93;;;19.70;99.80;;;;;;5071463;28;20043;-44
2022/08/31 06:52:33;;;;;;;5.80;4.57;;;19.70;99.90;;;;;;5070963;28;20021;-43
2022/08/31 06:54:59;;;;;;;6.22;4.97;;;19.60;99.90;;;;;;5071564;28;20525;-43
2022/08/31 06:57:25;;;;;;;8.48;4.10;;;19.50;99.90;;;;;;5070966;28;20025;-47
2022/08/31 06:59:52;;;;;;;9.32;4.50;;;18.30;99.90;;;;;;5071648;28;20047;-47
2022/08/31 07:02:18;;;;;;;8.63;5.35;;;19.40;99.90;;;;;;5071244;28;20031;-46
2022/08/31 07:04:44;;;;;;;8.98;5.45;;;19.30;99.90;;;;;;5071438;28;20013;-44
2022/08/31 07:07:10;;;;;;;7.93;5.45;;;19.30;99.90;;;;;;5071648;28;20109;-45
2022/08/31 07:09:36;;;;;;;10.27;4.78;;;19.20;99.90;;;;;;5071522;28;20085;-49
2022/08/31 07:12:03;;;;;;;7.40;5.60;;;19.20;99.90;;;;;;5054412;28;20059;-43
2022/08/31 07:14:29;;;;;;;10.55;5.63;;;19.00;99.90;;;;;;5071955;28;20035;-47
2022/08/31 07:16:56;;;;;;;6.85;5.35;;;19.00;99.90;;;;;;5053953;28;20025;-45
2022/08/31 07:19:24;;;;;;;6.93;5.35;;;18.90;99.90;;;;;;5071240;28;20024;-45
2022/08/31 07:21:55;;;;;;;9.63;5.10;;;18.90;99.90;;;;;;5053614;28;20021;-51
2022/08/31 07:24:30;;;;;;;8.35;6.00;;;19.00;99.90;;;;;;5071451;28;20067;-46
2022/08/31 07:27:08;;;;;;;12.63;6.55;;;18.40;99.90;;;;;;5071475;28;20098;-41
2022/08/31 07:29:39;;;;;;;8.63;5.53;;;18.90;99.90;;;;;;5071008;28;20092;-46
2022/08/31 07:32:07;;;;;;;9.27;6.28;;;18.90;99.90;;;;;;5070911;28;20021;-48
2022/08/31 07:34:34;;;;;;;7.05;5.75;;;18.90;99.90;;;;;;5071228;28;20028;-48
2022/08/31 07:42:33;;;;;;;11.70;6.32;;;18.80;99.90;;;;;;5071337;28;20074;-47
2022/08/31 07:45:00;;;;;;;8.10;6.10;;;18.80;99.90;;;;;;5071417;28;20502;-45
2022/08/31 07:47:27;;;;;;;11.75;6.57;;;18.80;99.90;;;;;;5071236;28;20492;-44
2022/08/31 07:49:54;;;;;;;10.32;6.53;;;18.80;99.90;;;;;;5052961;28;20032;-50
2022/08/31 07:52:24;;;;;;;9.52;6.47;;;18.90;99.90;;;;;;5070844;28;20480;-44
2022/08/31 07:54:51;;;;;;;12.23;6.38;;;18.80;99.90;;;;;;5071208;28;20035;-45
2022/08/31 07:57:18;;;;;;;13.02;6.25;;;18.80;99.90;;;;;;5071745;28;20141;-49
2022/08/31 07:59:45;;;;;;;8.38;6.15;;;18.80;99.90;;;;;;5071651;28;20074;-41
2022/08/31 08:02:12;;;;;;;10.18;6.35;;;18.80;99.90;;;;;;5071527;28;20067;-44
2022/08/31 08:04:39;;;;;;;9.70;5.57;;;18.80;99.90;;;;;;5074730;28;20017;-44
2022/08/31 08:07:05;;;;;;;8.60;6.35;;;18.80;99.90;;;;;;5074718;28;20025;-47
2022/08/31 08:09:31;;;;;;;8.15;6.25;;;18.80;99.90;;;;;;5074610;28;20029;-45
2022/08/31 08:12:03;;;;;;;6.97;5.88;;;18.70;99.90;;;;;;5074084;28;20095;-45
2022/08/31 08:14:28;;;;;;;15.73;6.47;;;18.70;99.90;;;;;;5074736;28;20138;-47
2022/08/31 08:16:54;;;;;;;6.95;5.78;;;18.60;99.90;;;;;;5074463;28;20024;-42
2022/08/31 08:19:20;;;;;;;14.57;6.68;;;18.60;99.90;;;;;;5074303;28;20472;-43
2022/08/31 08:21:47;;;;;;;11.52;7.30;;;18.60;99.90;;;;;;5056211;28;20017;-44
2022/08/31 08:24:13;;;;;;;7.97;6.30;;;18.60;99.90;;;;;;5074158;28;20031;-46
2022/08/31 08:26:44;;;;;;;7.15;5.57;;;18.60;99.90;;;;;;5074405;28;20096;-46
2022/08/31 08:29:10;;;;;;;11.50;6.55;;;18.60;99.90;;;;;;5073947;28;20027;-44
2022/08/31 08:31:35;;;;;;;7.32;6.60;;;18.70;99.90;;;;;;5074220;28;20081;-48
2022/08/31 08:34:01;;;;;;;11.43;6.60;;;18.80;99.90;;;;;;5073995;28;20028;-47
2022/08/31 08:36:31;;;;;;;7.15;5.68;;;18.80;99.90;;;;;;5074047;28;20077;-44
2022/08/31 08:38:56;;;;;;;9.85;6.22;;;18.80;99.90;;;;;;5074053;28;20024;-47
2022/08/31 08:41:25;;;;;;;7.18;6.22;;;18.80;99.90;;;;;;5074056;28;20035;-44
2022/08/31 08:43:57;;;;;;;6.85;5.10;;;18.80;99.90;;;;;;5073853;28;20071;-44
2022/08/31 08:46:38;;;;;;;8.38;4.85;;;18.90;99.90;;;;;;5074236;28;20395;-47
2022/08/31 08:49:27;;;;;;;7.78;5.53;;;19.00;99.90;;;;;;5073650;28;20403;-43
2022/08/31 08:52:05;;;;;;;6.82;5.75;;;19.00;99.90;;;;;;5062483;28;20029;-42
2022/08/31 08:54:37;;;;;;;11.23;5.88;;;18.90;99.90;;;;;;5073934;28;20543;-48
2022/08/31 08:57:11;;;;;;;7.47;5.45;;;18.90;99.90;;;;;;5073018;28;20396;-45
2022/08/31 08:59:37;;;;;;;12.52;6.05;;;18.90;99.90;;;;;;5073464;28;20438;-41
2022/08/31 09:02:05;;;;;;;6.78;6.05;;;19.00;99.90;;;;;;5073016;28;20104;-46
2022/08/31 09:04:39;;;;;;;7.97;6.15;;;19.10;99.90;;;;;;5073320;28;20028;-42
2022/08/31 09:07:21;;;;;;;10.25;6.35;;;19.10;99.90;;;;;;5073280;28;20028;-48
2022/08/31 09:10:21;;;;;;;9.82;5.05;;;19.20;99.90;;;;;;5072962;28;20031;-47
2022/08/31 09:12:57;;;;;;;7.95;4.90;;;19.30;99.90;;;;;;5072948;28;20028;-42
2022/08/31 09:15:34;;;;;;;13.20;7.10;;;19.30;99.90;;;;;;5072676;28;20419;-50
2022/08/31 09:18:20;;;;;;;9.07;5.78;;;19.40;99.90;;;;;;5073059;28;20112;-44
2022/08/31 09:21:06;;;;;;;6.28;5.68;;;19.40;99.90;;;;;;5073078;28;20398;-43
2022/08/31 09:23:39;;;;;;;11.32;6.25;;;19.40;99.90;;;;;;5073322;28;20028;-43
2022/08/31 09:26:05;;;;;;;11.90;5.90;;;19.40;99.90;;;;;;5073106;28;20395;-49
2022/08/31 09:28:36;;;;;;;8.95;5.50;;;19.50;99.90;;;;;;5072899;28;20020;-45
2022/08/31 09:31:02;;;;;;;8.27;6.75;;;19.50;99.90;;;;;;5072752;28;20315;-46
2022/08/31 09:33:33;;;;;;;10.60;7.32;;;19.60;99.90;;;;;;5072588;28;20045;-44
2022/08/31 09:36:17;;;;;;;9.77;7.35;;;19.70;99.90;;;;;;5072600;28;20032;-47
2022/08/31 09:38:45;;;;;;;5.70;5.05;;;19.60;99.90;;;;;;5073162;28;20028;-47
2022/08/31 09:41:35;;;;;;;11.48;6.65;;;19.40;99.90;;;;;;5073138;28;20100;-48
2022/08/31 09:44:27;;;;;;;8.63;6.65;;;19.40;99.90;;;;;;5072215;28;20027;-46
2022/08/31 09:46:56;;;;;;;9.13;7.55;;;19.40;99.90;;;;;;5072350;28;20510;-43
2022/08/31 09:49:26;;;;;;;11.35;7.97;;;19.50;99.90;;;;;;5093363;22;20052;-45
2022/08/31 09:52:12;;;;;;;11.85;6.85;;;19.60;99.90;;;;;;5071756;28;20037;-39
2022/08/31 09:57:51;;;;;;;13.50;7.82;;;19.80;99.90;;;;;;5071538;28;20071;-44
2022/08/31 10:00:31;;;;;;;16.00;9.35;;;19.90;99.90;;;;;;5071916;28;20017;-46
2022/08/31 10:03:12;;;;;;;12.02;8.65;;;20.10;99.90;;;;;;5071969;28;20108;-43
2022/08/31 10:05:40;;;;;;;11.75;7.80;;;20.20;99.90;;;;;;5072007;28;20017;-45
2022/08/31 10:08:27;;;;;;;8.18;6.93;;;20.40;99.90;;;;;;5071849;28;20391;-44
2022/08/31 10:11:00;;;;;;;10.27;6.45;;;20.50;99.90;;;;;;5071894;28;20023;-44
2022/08/31 10:13:56;;;;;;;9.00;7.00;;;20.70;99.90;;;;;;5053594;28;20017;-45
2022/08/31 10:16:24;;;;;;;8.40;7.25;;;20.80;99.90;;;;;;5071785;28;20032;-44
2022/08/31 10:19:02;;;;;;;10.15;6.55;;;20.80;99.90;;;;;;5071918;28;20024;-44
2022/08/31 10:21:37;;;;;;;8.48;6.22;;;20.90;99.90;;;;;;5071698;28;20402;-43
2022/08/31 10:24:32;;;;;;;10.95;8.02;;;20.80;99.90;;;;;;5072093;28;20017;-46
2022/08/31 10:27:12;;;;;;;16.85;6.65;;;20.80;99.90;;;;;;5071001;28;20407;-43
2022/08/31 10:29:53;;;;;;;6.63;5.80;;;20.70;99.90;;;;;;5071646;28;20025;-42
2022/08/31 10:32:42;;;;;;;9.65;6.05;;;20.80;99.90;;;;;;5071437;28;20032;-46
2022/08/31 10:35:35;;;;;;;7.95;5.85;;;20.90;99.90;;;;;;5071893;28;20081;-43
2022/08/31 10:38:34;;;;;;;6.63;6.00;;;20.90;99.90;;;;;;5053959;28;20111;-44
2022/08/31 10:41:11;;;;;;;5.60;5.10;;;21.00;99.90;;;;;;5071882;28;20024;-46
2022/08/31 10:44:00;;;;;;;10.68;6.07;;;21.10;99.90;;;;;;5071676;28;20025;-43
2022/08/31 10:46:29;;;;;;;11.70;6.53;;;21.10;99.90;;;;;;5071509;28;20061;-44
2022/08/31 10:48:56;;;;;;;9.18;6.68;;;21.30;99.90;;;;;;5071590;28;20032;-44
2022/08/31 10:51:46;;;;;;;8.32;6.30;;;21.40;99.90;;;;;;5071791;28;20036;-45
2022/08/31 10:54:49;;;;;;;10.25;6.55;;;21.50;99.90;;;;;;5071685;28;20029;-44
2022/08/31 10:57:31;;;;;;;8.60;6.45;;;21.50;99.90;;;;;;5071701;28;20051;-44
2022/08/31 11:00:02;;;;;;;10.60;6.70;;;21.50;99.90;;;;;;5071430;28;20515;-46
2022/08/31 11:02:47;;;;;;;11.30;6.00;;;21.50;99.90;;;;;;5053234;28;20052;-43
2022/08/31 11:05:39;;;;;;;9.15;6.28;;;21.50;99.90;;;;;;5071583;28;20495;-44
2022/08/31 11:08:47;;;;;;;7.47;5.32;;;21.50;99.90;;;;;;5067943;28;20036;-46
2022/08/31 11:11:20;;;;;;;9.85;6.63;;;21.60;99.90;;;;;;5071367;28;20090;-47
2022/08/31 11:13:59;;;;;;;13.52;7.00;;;21.70;99.90;;;;;;5071202;28;20021;-44
2022/08/31 11:16:42;;;;;;;8.38;6.30;;;21.70;99.90;;;;;;5071445;28;20438;-48
2022/08/31 11:19:49;;;;;;;8.68;6.35;;;21.70;99.90;;;;;;5071333;28;20430;-44
2022/08/31 11:22:35;;;;;;;7.63;6.50;;;21.80;99.90;;;;;;5043631;28;20024;-47
2022/08/31 11:25:23;;;;;;;7.53;5.50;;;21.80;99.90;;;;;;5071038;28;20031;-46
2022/08/31 11:28:22;;;;;;;9.57;6.47;;;21.90;99.90;;;;;;5070975;28;20029;-44
2022/08/31 11:30:48;;;;;;;13.07;6.53;;;22.00;99.90;;;;;;5070880;28;20381;-48
2022/08/31 11:33:18;;;;;;;6.72;6.07;;;22.10;99.90;;;;;;5070826;28;20115;-46
2022/08/31 11:36:01;;;;;;;7.55;5.82;;;22.20;99.90;;;;;;5070947;28;20300;-44
2022/08/31 11:38:47;;;;;;;11.40;6.57;;;22.30;99.90;;;;;;5073321;28;20017;-44
2022/08/31 11:41:37;;;;;;;12.80;7.63;;;22.40;99.90;;;;;;5074414;28;20422;-45
2022/08/31 11:44:06;;;;;;;10.20;5.78;;;22.40;99.90;;;;;;5074604;28;20044;-41
2022/08/31 11:46:44;;;;;;;12.18;6.25;;;22.40;99.90;;;;;;5057015;28;20038;-40
2022/08/31 11:49:39;;;;;;;9.05;5.80;;;22.60;99.90;;;;;;5074433;28;20580;-45
2022/08/31 11:52:13;;;;;;;9.98;5.50;;;22.70;99.90;;;;;;5074323;28;20029;-46
2022/08/31 11:54:41;;;;;;;6.13;4.60;;;22.70;99.90;;;;;;5074418;28;20121;-44
2022/08/31 11:57:14;;;;;;;8.00;4.97;;;22.70;99.90;;;;;;5073810;28;20031;-44
2022/08/31 11:59:45;;;;;;;9.60;5.10;;;22.70;99.90;;;;;;5074208;28;20070;-42
2022/08/31 12:02:20;;;;;;;6.43;4.80;;;22.90;99.90;;;;;;5074097;28;20393;-42
2022/08/31 12:04:52;;;;;;;5.20;4.47;;;23.00;99.90;;;;;;5074457;28;20016;-46
2022/08/31 12:07:37;;;;;;;7.82;4.60;;;23.10;99.90;;;;;;5074172;28;20028;-47
2022/08/31 12:10:09;;;;;;;7.53;4.30;;;23.20;99.90;;;;;;5074078;28;20024;-42
2022/08/31 12:13:02;;;;;;;12.30;5.10;;;23.30;99.90;;;;;;5073839;28;20032;-40
2022/08/31 12:15:33;;;;;;;10.93;5.05;;;23.40;99.90;;;;;;5056157;28;20028;-44
2022/08/31 12:18:04;;;;;;;8.05;4.70;;;23.50;99.90;;;;;;5074014;28;20534;-44
2022/08/31 12:24:05;;;;;;;7.90;5.70;;;23.70;99.90;;;;;;5073798;28;20527;-48
2022/08/31 12:26:47;;;;;;;10.32;6.25;;;23.70;99.90;;;;;;5074240;28;20059;-48
2022/08/31 12:29:19;;;;;;;11.50;6.03;;;24.00;99.90;;;;;;5073672;28;20032;-45
2022/08/31 12:32:23;;;;;;;6.47;5.72;;;23.90;99.90;;;;;;5073702;28;20111;-42
2022/08/31 12:34:53;;;;;;;11.05;6.10;;;23.70;99.90;;;;;;5069484;28;20068;-43
2022/08/31 12:37:31;;;;;;;11.05;8.13;;;23.70;99.90;;;;;;5073379;28;20032;-47
2022/08/31 12:40:19;;;;;;;9.70;7.80;;;23.70;99.90;;;;;;5073355;28;20017;-47
2022/08/31 12:43:18;;;;;;;11.30;7.88;;;24.00;99.90;;;;;;5073148;28;20031;-46
2022/08/31 12:46:30;;;;;;;13.02;8.30;;;23.80;99.90;;;;;;5073584;28;20395;-45
2022/08/31 12:49:21;;;;;;;15.55;7.57;;;23.70;99.90;;;;;;5035838;28;20068;-45
2022/08/31 12:52:00;;;;;;;14.15;8.00;;;23.70;99.90;;;;;;5073425;28;20056;-47
2022/08/31 12:54:43;;;;;;;14.85;7.70;;;23.80;99.90;;;;;;5073547;28;20021;-47
2022/08/31 12:57:36;;;;;;;8.73;6.93;;;23.80;99.90;;;;;;5072630;28;20028;-44
2022/08/31 13:00:06;;;;;;;10.10;7.10;;;23.70;99.90;;;;;;5073107;28;20052;-46
2022/08/31 13:02:37;;;;;;;14.98;7.00;;;23.80;99.90;;;;;;5072995;28;20420;-48
2022/08/31 13:05:12;;;;;;;10.45;6.95;;;23.90;99.90;;;;;;5073158;28;20029;-45
2022/08/31 13:07:38;;;;;;;9.93;5.97;;;24.00;99.90;;;;;;5073064;28;20028;-45
2022/08/31 13:10:05;;;;;;;10.45;6.15;;;24.00;99.90;;;;;;5073217;28;20025;-46
2022/08/31 13:12:32;;;;;;;6.22;5.63;;;24.00;99.90;;;;;;5072820;28;20025;-44
2022/08/31 13:14:57;;;;;;;10.15;5.53;;;24.00;99.90;;;;;;5073407;28;20044;-47
2022/08/31 13:17:23;;;;;;;5.80;5.10;;;24.00;99.90;;;;;;5073032;28;20029;-45
2022/08/31 13:19:54;;;;;;;10.93;5.65;;;24.00;99.90;;;;;;5054991;28;20020;-44
2022/08/31 13:22:38;;;;;;;10.10;5.88;;;23.90;99.90;;;;;;5072709;28;20025;-45